sensor_id;sensor_type;location;lat;lon;timestamp;P1;durP1;ratioP1;P2;durP2;ratioP2
3601;SDS011;1815;50.950;6.920;2022-11-20T00:01:11;12.85;;;10.88;;
3601;SDS011;1815;50.950;6.920;2022-11-20T00:03:37;13.40;;;10.13;;
3601;SDS011;1815;50.950;6.920;2022-11-20T00:06:07;12.95;;;10.60;;
3601;SDS011;1815;50.950;6.920;2022-11-20T00:08:35;11.90;;;10.25;;
3601;SDS011;1815;50.950;6.920;2022-11-20T00:11:05;10.43;;;8.63;;
3601;SDS011;1815;50.950;6.920;2022-11-20T00:13:31;10.85;;;9.15;;
3601;SDS011;1815;50.950;6.920;2022-11-20T00:15:58;10.88;;;9.40;;
3601;SDS011;1815;50.950;6.920;2022-11-20T00:18:24;9.32;;;8.32;;
3601;SDS011;1815;50.950;6.920;2022-11-20T00:20:50;11.00;;;9.85;;
3601;SDS011;1815;50.950;6.920;2022-11-20T00:23:16;11.83;;;9.37;;
3601;SDS011;1815;50.950;6.920;2022-11-20T00:25:42;10.60;;;9.50;;
3601;SDS011;1815;50.950;6.920;2022-11-20T00:28:08;9.90;;;8.90;;
3601;SDS011;1815;50.950;6.920;2022-11-20T00:30:33;10.60;;;9.50;;
3601;SDS011;1815;50.950;6.920;2022-11-20T00:32:59;12.80;;;9.43;;
3601;SDS011;1815;50.950;6.920;2022-11-20T00:35:25;12.43;;;10.30;;
3601;SDS011;1815;50.950;6.920;2022-11-20T00:37:50;11.83;;;10.03;;
3601;SDS011;1815;50.950;6.920;2022-11-20T00:40:16;11.73;;;9.40;;
3601;SDS011;1815;50.950;6.920;2022-11-20T00:42:42;10.90;;;9.43;;
3601;SDS011;1815;50.950;6.920;2022-11-20T00:45:08;10.37;;;8.97;;
3601;SDS011;1815;50.950;6.920;2022-11-20T00:47:34;9.10;;;7.97;;
3601;SDS011;1815;50.950;6.920;2022-11-20T00:49:59;9.53;;;8.43;;
3601;SDS011;1815;50.950;6.920;2022-11-20T00:52:26;11.73;;;9.77;;
3601;SDS011;1815;50.950;6.920;2022-11-20T00:54:52;10.20;;;9.10;;
3601;SDS011;1815;50.950;6.920;2022-11-20T00:57:17;11.33;;;10.00;;
3601;SDS011;1815;50.950;6.920;2022-11-20T00:59:43;9.40;;;8.23;;
3601;SDS011;1815;50.950;6.920;2022-11-20T01:02:09;12.33;;;10.03;;
3601;SDS011;1815;50.950;6.920;2022-11-20T01:04:35;10.43;;;8.77;;
3601;SDS011;1815;50.950;6.920;2022-11-20T01:07:00;13.33;;;11.00;;
3601;SDS011;1815;50.950;6.920;2022-11-20T01:09:26;12.47;;;10.90;;
3601;SDS011;1815;50.950;6.920;2022-11-20T01:11:52;10.20;;;8.90;;
3601;SDS011;1815;50.950;6.920;2022-11-20T01:14:18;10.37;;;8.63;;
3601;SDS011;1815;50.950;6.920;2022-11-20T01:16:46;10.63;;;9.52;;
3601;SDS011;1815;50.950;6.920;2022-11-20T01:19:14;11.18;;;9.40;;
3601;SDS011;1815;50.950;6.920;2022-11-20T01:21:42;13.20;;;9.73;;
3601;SDS011;1815;50.950;6.920;2022-11-20T01:24:13;10.93;;;9.15;;
3601;SDS011;1815;50.950;6.920;2022-11-20T01:26:41;11.85;;;10.52;;
3601;SDS011;1815;50.950;6.920;2022-11-20T01:29:16;11.80;;;9.88;;
3601;SDS011;1815;50.950;6.920;2022-11-20T01:31:44;9.90;;;8.70;;
3601;SDS011;1815;50.950;6.920;2022-11-20T01:34:11;10.40;;;8.40;;
3601;SDS011;1815;50.950;6.920;2022-11-20T01:36:39;10.80;;;8.60;;
3601;SDS011;1815;50.950;6.920;2022-11-20T01:39:06;11.02;;;9.48;;
3601;SDS011;1815;50.950;6.920;2022-11-20T01:41:37;13.60;;;9.70;;
3601;SDS011;1815;50.950;6.920;2022-11-20T01:44:39;11.60;;;9.05;;
3601;SDS011;1815;50.950;6.920;2022-11-20T01:47:07;9.25;;;8.30;;
3601;SDS011;1815;50.950;6.920;2022-11-20T01:49:37;10.70;;;9.57;;
3601;SDS011;1815;50.950;6.920;2022-11-20T01:52:09;10.20;;;8.05;;
3601;SDS011;1815;50.950;6.920;2022-11-20T01:54:47;11.10;;;9.35;;
3601;SDS011;1815;50.950;6.920;2022-11-20T01:57:18;13.38;;;9.50;;
3601;SDS011;1815;50.950;6.920;2022-11-20T01:59:48;11.45;;;9.80;;
3601;SDS011;1815;50.950;6.920;2022-11-20T02:02:21;11.57;;;9.85;;
3601;SDS011;1815;50.950;6.920;2022-11-20T02:04:48;12.80;;;9.43;;
3601;SDS011;1815;50.950;6.920;2022-11-20T02:07:16;13.13;;;11.38;;
3601;SDS011;1815;50.950;6.920;2022-11-20T02:09:44;12.43;;;10.70;;
3601;SDS011;1815;50.950;6.920;2022-11-20T02:12:09;12.23;;;11.00;;
3601;SDS011;1815;50.950;6.920;2022-11-20T02:14:56;12.40;;;10.02;;
3601;SDS011;1815;50.950;6.920;2022-11-20T02:17:22;10.70;;;9.65;;
3601;SDS011;1815;50.950;6.920;2022-11-20T02:19:49;11.60;;;10.10;;
3601;SDS011;1815;50.950;6.920;2022-11-20T02:22:18;10.43;;;9.20;;
3601;SDS011;1815;50.950;6.920;2022-11-20T02:25:07;11.50;;;9.48;;
3601;SDS011;1815;50.950;6.920;2022-11-20T02:27:34;10.43;;;9.35;;
3601;SDS011;1815;50.950;6.920;2022-11-20T02:30:00;13.10;;;10.17;;
3601;SDS011;1815;50.950;6.920;2022-11-20T02:32:33;11.52;;;9.63;;
3601;SDS011;1815;50.950;6.920;2022-11-20T02:35:07;11.65;;;10.45;;
3601;SDS011;1815;50.950;6.920;2022-11-20T02:37:35;11.60;;;10.32;;
3601;SDS011;1815;50.950;6.920;2022-11-20T02:40:05;14.55;;;10.98;;
3601;SDS011;1815;50.950;6.920;2022-11-20T02:42:31;10.57;;;8.15;;
3601;SDS011;1815;50.950;6.920;2022-11-20T02:45:04;12.02;;;10.20;;
3601;SDS011;1815;50.950;6.920;2022-11-20T02:47:31;13.02;;;10.07;;
3601;SDS011;1815;50.950;6.920;2022-11-20T02:49:57;13.40;;;10.77;;
3601;SDS011;1815;50.950;6.920;2022-11-20T02:52:23;13.30;;;10.63;;
3601;SDS011;1815;50.950;6.920;2022-11-20T02:54:49;12.00;;;9.60;;
3601;SDS011;1815;50.950;6.920;2022-11-20T02:57:15;12.60;;;11.40;;
3601;SDS011;1815;50.950;6.920;2022-11-20T02:59:41;13.30;;;11.27;;
3601;SDS011;1815;50.950;6.920;2022-11-20T03:02:06;12.60;;;10.30;;
3601;SDS011;1815;50.950;6.920;2022-11-20T03:04:32;12.53;;;9.80;;
3601;SDS011;1815;50.950;6.920;2022-11-20T03:06:58;10.87;;;9.73;;
3601;SDS011;1815;50.950;6.920;2022-11-20T03:09:24;11.67;;;9.77;;
3601;SDS011;1815;50.950;6.920;2022-11-20T03:11:49;12.83;;;10.43;;
3601;SDS011;1815;50.950;6.920;2022-11-20T03:14:15;12.23;;;10.63;;
3601;SDS011;1815;50.950;6.920;2022-11-20T03:16:41;10.10;;;8.40;;
3601;SDS011;1815;50.950;6.920;2022-11-20T03:19:06;11.77;;;10.07;;
3601;SDS011;1815;50.950;6.920;2022-11-20T03:21:33;13.77;;;9.93;;
3601;SDS011;1815;50.950;6.920;2022-11-20T03:23:59;11.95;;;9.48;;
3601;SDS011;1815;50.950;6.920;2022-11-20T03:26:26;9.52;;;8.35;;
3601;SDS011;1815;50.950;6.920;2022-11-20T03:28:58;11.20;;;9.20;;
3601;SDS011;1815;50.950;6.920;2022-11-20T03:31:27;12.20;;;8.93;;
3601;SDS011;1815;50.950;6.920;2022-11-20T03:33:58;11.32;;;9.40;;
3601;SDS011;1815;50.950;6.920;2022-11-20T03:36:24;10.35;;;9.27;;
3601;SDS011;1815;50.950;6.920;2022-11-20T03:38:52;11.40;;;10.20;;
3601;SDS011;1815;50.950;6.920;2022-11-20T03:41:20;10.95;;;9.05;;
3601;SDS011;1815;50.950;6.920;2022-11-20T03:43:48;11.60;;;9.07;;
3601;SDS011;1815;50.950;6.920;2022-11-20T03:46:15;11.30;;;10.10;;
3601;SDS011;1815;50.950;6.920;2022-11-20T03:48:41;12.32;;;10.68;;
3601;SDS011;1815;50.950;6.920;2022-11-20T03:51:18;10.65;;;9.25;;
3601;SDS011;1815;50.950;6.920;2022-11-20T03:53:48;11.85;;;9.70;;
3601;SDS011;1815;50.950;6.920;2022-11-20T03:56:16;11.48;;;9.63;;
3601;SDS011;1815;50.950;6.920;2022-11-20T03:58:43;11.63;;;9.05;;
3601;SDS011;1815;50.950;6.920;2022-11-20T04:01:10;11.77;;;9.53;;
3601;SDS011;1815;50.950;6.920;2022-11-20T04:03:37;12.35;;;10.90;;
3601;SDS011;1815;50.950;6.920;2022-11-20T04:06:15;12.50;;;11.20;;
3601;SDS011;1815;50.950;6.920;2022-11-20T04:08:50;11.05;;;8.30;;
3601;SDS011;1815;50.950;6.920;2022-11-20T04:11:19;10.43;;;9.30;;
3601;SDS011;1815;50.950;6.920;2022-11-20T04:13:48;11.00;;;7.80;;
3601;SDS011;1815;50.950;6.920;2022-11-20T04:16:21;13.57;;;11.52;;
3601;SDS011;1815;50.950;6.920;2022-11-20T04:18:51;10.93;;;9.10;;
3601;SDS011;1815;50.950;6.920;2022-11-20T04:21:18;11.25;;;9.90;;
3601;SDS011;1815;50.950;6.920;2022-11-20T04:23:43;12.67;;;10.90;;
3601;SDS011;1815;50.950;6.920;2022-11-20T04:26:10;12.40;;;11.07;;
3601;SDS011;1815;50.950;6.920;2022-11-20T04:28:37;11.38;;;9.85;;
3601;SDS011;1815;50.950;6.920;2022-11-20T04:31:11;10.68;;;8.65;;
3601;SDS011;1815;50.950;6.920;2022-11-20T04:33:38;9.70;;;8.18;;
3601;SDS011;1815;50.950;6.920;2022-11-20T04:36:05;12.00;;;9.32;;
3601;SDS011;1815;50.950;6.920;2022-11-20T04:38:38;12.18;;;9.48;;
3601;SDS011;1815;50.950;6.920;2022-11-20T04:41:06;10.70;;;8.80;;
3601;SDS011;1815;50.950;6.920;2022-11-20T04:43:34;13.57;;;9.88;;
3601;SDS011;1815;50.950;6.920;2022-11-20T04:46:00;12.67;;;10.03;;
3601;SDS011;1815;50.950;6.920;2022-11-20T04:48:27;12.90;;;10.30;;
3601;SDS011;1815;50.950;6.920;2022-11-20T04:50:54;11.95;;;10.35;;
3601;SDS011;1815;50.950;6.920;2022-11-20T04:53:20;12.93;;;10.30;;
3601;SDS011;1815;50.950;6.920;2022-11-20T04:55:47;12.85;;;9.82;;
3601;SDS011;1815;50.950;6.920;2022-11-20T04:58:13;13.03;;;10.40;;
3601;SDS011;1815;50.950;6.920;2022-11-20T05:00:39;12.45;;;9.95;;
3601;SDS011;1815;50.950;6.920;2022-11-20T05:03:05;12.03;;;9.87;;
3601;SDS011;1815;50.950;6.920;2022-11-20T05:05:31;13.27;;;10.55;;
3601;SDS011;1815;50.950;6.920;2022-11-20T05:07:58;12.02;;;9.93;;
3601;SDS011;1815;50.950;6.920;2022-11-20T05:10:28;10.88;;;9.05;;
3601;SDS011;1815;50.950;6.920;2022-11-20T05:12:59;12.15;;;10.75;;
3601;SDS011;1815;50.950;6.920;2022-11-20T05:15:45;10.90;;;8.85;;
3601;SDS011;1815;50.950;6.920;2022-11-20T05:18:11;10.80;;;8.60;;
3601;SDS011;1815;50.950;6.920;2022-11-20T05:20:37;11.13;;;9.90;;
3601;SDS011;1815;50.950;6.920;2022-11-20T05:23:02;11.67;;;10.07;;
3601;SDS011;1815;50.950;6.920;2022-11-20T05:25:28;14.10;;;10.27;;
3601;SDS011;1815;50.950;6.920;2022-11-20T05:27:54;12.73;;;9.90;;
3601;SDS011;1815;50.950;6.920;2022-11-20T05:30:19;12.40;;;10.70;;
3601;SDS011;1815;50.950;6.920;2022-11-20T05:32:45;14.43;;;9.83;;
3601;SDS011;1815;50.950;6.920;2022-11-20T05:35:11;13.23;;;10.90;;
3601;SDS011;1815;50.950;6.920;2022-11-20T05:37:36;14.17;;;11.17;;
3601;SDS011;1815;50.950;6.920;2022-11-20T05:40:02;14.17;;;11.37;;
3601;SDS011;1815;50.950;6.920;2022-11-20T05:42:31;13.10;;;10.98;;
3601;SDS011;1815;50.950;6.920;2022-11-20T05:44:57;12.60;;;10.27;;
3601;SDS011;1815;50.950;6.920;2022-11-20T05:47:24;11.88;;;10.63;;
3601;SDS011;1815;50.950;6.920;2022-11-20T05:49:51;12.23;;;9.65;;
3601;SDS011;1815;50.950;6.920;2022-11-20T05:52:17;12.17;;;10.50;;
3601;SDS011;1815;50.950;6.920;2022-11-20T05:54:42;14.83;;;11.57;;
3601;SDS011;1815;50.950;6.920;2022-11-20T05:57:08;15.30;;;12.20;;
3601;SDS011;1815;50.950;6.920;2022-11-20T05:59:34;11.53;;;10.40;;
3601;SDS011;1815;50.950;6.920;2022-11-20T06:01:59;12.07;;;9.80;;
3601;SDS011;1815;50.950;6.920;2022-11-20T06:04:26;13.80;;;10.80;;
3601;SDS011;1815;50.950;6.920;2022-11-20T06:06:52;14.67;;;11.20;;
3601;SDS011;1815;50.950;6.920;2022-11-20T06:09:17;15.23;;;11.20;;
3601;SDS011;1815;50.950;6.920;2022-11-20T06:11:43;14.80;;;13.20;;
3601;SDS011;1815;50.950;6.920;2022-11-20T06:14:09;11.80;;;10.17;;
3601;SDS011;1815;50.950;6.920;2022-11-20T06:16:35;11.60;;;10.40;;
3601;SDS011;1815;50.950;6.920;2022-11-20T06:19:00;12.33;;;10.67;;
3601;SDS011;1815;50.950;6.920;2022-11-20T06:21:26;13.23;;;11.07;;
3601;SDS011;1815;50.950;6.920;2022-11-20T06:23:52;12.93;;;11.30;;
3601;SDS011;1815;50.950;6.920;2022-11-20T06:26:20;12.80;;;10.45;;
3601;SDS011;1815;50.950;6.920;2022-11-20T06:28:50;15.75;;;12.05;;
3601;SDS011;1815;50.950;6.920;2022-11-20T06:31:18;14.25;;;11.50;;
3601;SDS011;1815;50.950;6.920;2022-11-20T06:33:46;13.50;;;12.10;;
3601;SDS011;1815;50.950;6.920;2022-11-20T06:36:13;13.95;;;11.50;;
3601;SDS011;1815;50.950;6.920;2022-11-20T06:38:41;15.05;;;11.52;;
3601;SDS011;1815;50.950;6.920;2022-11-20T06:41:11;13.85;;;10.82;;
3601;SDS011;1815;50.950;6.920;2022-11-20T06:43:39;15.05;;;11.85;;
3601;SDS011;1815;50.950;6.920;2022-11-20T06:46:05;13.77;;;10.40;;
3601;SDS011;1815;50.950;6.920;2022-11-20T06:48:31;15.00;;;12.30;;
3601;SDS011;1815;50.950;6.920;2022-11-20T06:50:57;17.37;;;11.83;;
3601;SDS011;1815;50.950;6.920;2022-11-20T06:53:23;17.13;;;13.60;;
3601;SDS011;1815;50.950;6.920;2022-11-20T06:55:50;16.55;;;12.88;;
3601;SDS011;1815;50.950;6.920;2022-11-20T06:58:16;16.58;;;12.13;;
3601;SDS011;1815;50.950;6.920;2022-11-20T07:00:43;14.75;;;11.45;;
3601;SDS011;1815;50.950;6.920;2022-11-20T07:03:10;14.80;;;12.80;;
3601;SDS011;1815;50.950;6.920;2022-11-20T07:05:37;13.40;;;11.48;;
3601;SDS011;1815;50.950;6.920;2022-11-20T07:08:03;14.27;;;11.45;;
3601;SDS011;1815;50.950;6.920;2022-11-20T07:10:29;15.23;;;11.68;;
3601;SDS011;1815;50.950;6.920;2022-11-20T07:12:55;15.63;;;12.43;;
3601;SDS011;1815;50.950;6.920;2022-11-20T07:15:22;15.07;;;12.80;;
3601;SDS011;1815;50.950;6.920;2022-11-20T07:17:50;14.55;;;12.05;;
3601;SDS011;1815;50.950;6.920;2022-11-20T07:20:15;15.10;;;12.07;;
3601;SDS011;1815;50.950;6.920;2022-11-20T07:22:44;14.85;;;12.30;;
3601;SDS011;1815;50.950;6.920;2022-11-20T07:25:09;15.40;;;12.00;;
3601;SDS011;1815;50.950;6.920;2022-11-20T07:27:35;14.17;;;10.90;;
3601;SDS011;1815;50.950;6.920;2022-11-20T07:30:02;13.37;;;11.17;;
3601;SDS011;1815;50.950;6.920;2022-11-20T07:32:28;14.00;;;10.90;;
3601;SDS011;1815;50.950;6.920;2022-11-20T07:34:54;11.80;;;10.23;;
3601;SDS011;1815;50.950;6.920;2022-11-20T07:37:20;11.53;;;10.30;;
3601;SDS011;1815;50.950;6.920;2022-11-20T07:39:46;12.55;;;9.60;;
3601;SDS011;1815;50.950;6.920;2022-11-20T07:42:25;11.82;;;10.45;;
3601;SDS011;1815;50.950;6.920;2022-11-20T07:44:55;11.60;;;10.38;;
3601;SDS011;1815;50.950;6.920;2022-11-20T07:47:20;10.30;;;8.10;;
3601;SDS011;1815;50.950;6.920;2022-11-20T07:49:46;12.30;;;10.50;;
3601;SDS011;1815;50.950;6.920;2022-11-20T07:52:12;15.48;;;10.43;;
3601;SDS011;1815;50.950;6.920;2022-11-20T07:54:38;12.67;;;9.90;;
3601;SDS011;1815;50.950;6.920;2022-11-20T07:57:04;10.20;;;8.63;;
3601;SDS011;1815;50.950;6.920;2022-11-20T07:59:29;11.47;;;8.87;;
3601;SDS011;1815;50.950;6.920;2022-11-20T08:01:55;10.97;;;9.17;;
3601;SDS011;1815;50.950;6.920;2022-11-20T08:04:21;11.83;;;9.60;;
3601;SDS011;1815;50.950;6.920;2022-11-20T08:06:48;14.65;;;10.70;;
3601;SDS011;1815;50.950;6.920;2022-11-20T08:09:14;12.97;;;9.17;;
3601;SDS011;1815;50.950;6.920;2022-11-20T08:11:40;9.80;;;7.93;;
3601;SDS011;1815;50.950;6.920;2022-11-20T08:14:24;11.95;;;8.82;;
3601;SDS011;1815;50.950;6.920;2022-11-20T08:16:50;10.90;;;9.60;;
3601;SDS011;1815;50.950;6.920;2022-11-20T08:19:17;9.87;;;8.63;;
3601;SDS011;1815;50.950;6.920;2022-11-20T08:21:43;17.42;;;10.77;;
3601;SDS011;1815;50.950;6.920;2022-11-20T08:24:10;10.88;;;9.32;;
3601;SDS011;1815;50.950;6.920;2022-11-20T08:26:36;11.02;;;9.70;;
3601;SDS011;1815;50.950;6.920;2022-11-20T08:29:05;13.85;;;10.77;;
3601;SDS011;1815;50.950;6.920;2022-11-20T08:31:31;11.13;;;9.93;;
3601;SDS011;1815;50.950;6.920;2022-11-20T08:33:57;12.60;;;10.68;;
3601;SDS011;1815;50.950;6.920;2022-11-20T08:36:23;10.37;;;9.27;;
3601;SDS011;1815;50.950;6.920;2022-11-20T08:38:50;13.75;;;10.85;;
3601;SDS011;1815;50.950;6.920;2022-11-20T08:41:17;14.15;;;11.25;;
3601;SDS011;1815;50.950;6.920;2022-11-20T08:43:51;13.68;;;11.10;;
3601;SDS011;1815;50.950;6.920;2022-11-20T08:46:19;13.40;;;10.60;;
3601;SDS011;1815;50.950;6.920;2022-11-20T08:48:45;10.17;;;9.07;;
3601;SDS011;1815;50.950;6.920;2022-11-20T08:51:11;12.50;;;9.90;;
3601;SDS011;1815;50.950;6.920;2022-11-20T08:53:38;11.77;;;10.00;;
3601;SDS011;1815;50.950;6.920;2022-11-20T08:56:04;13.35;;;10.40;;
3601;SDS011;1815;50.950;6.920;2022-11-20T08:58:30;14.85;;;10.70;;
3601;SDS011;1815;50.950;6.920;2022-11-20T09:00:56;13.17;;;10.17;;
3601;SDS011;1815;50.950;6.920;2022-11-20T09:03:24;12.35;;;9.82;;
3601;SDS011;1815;50.950;6.920;2022-11-20T09:05:56;12.90;;;11.23;;
3601;SDS011;1815;50.950;6.920;2022-11-20T09:08:27;12.27;;;10.45;;
3601;SDS011;1815;50.950;6.920;2022-11-20T09:10:54;13.52;;;11.82;;
3601;SDS011;1815;50.950;6.920;2022-11-20T09:13:21;15.13;;;11.85;;
3601;SDS011;1815;50.950;6.920;2022-11-20T09:15:55;16.90;;;13.05;;
3601;SDS011;1815;50.950;6.920;2022-11-20T09:18:25;14.88;;;11.98;;
3601;SDS011;1815;50.950;6.920;2022-11-20T09:20:55;12.57;;;11.00;;
3601;SDS011;1815;50.950;6.920;2022-11-20T09:23:22;15.05;;;12.52;;
3601;SDS011;1815;50.950;6.920;2022-11-20T09:25:48;16.40;;;12.77;;
3601;SDS011;1815;50.950;6.920;2022-11-20T09:28:14;14.00;;;11.00;;
3601;SDS011;1815;50.950;6.920;2022-11-20T09:30:40;14.67;;;11.70;;
3601;SDS011;1815;50.950;6.920;2022-11-20T09:33:05;17.73;;;13.97;;
3601;SDS011;1815;50.950;6.920;2022-11-20T09:35:32;13.83;;;11.60;;
3601;SDS011;1815;50.950;6.920;2022-11-20T09:37:58;12.32;;;11.00;;
3601;SDS011;1815;50.950;6.920;2022-11-20T09:40:25;19.20;;;12.43;;
3601;SDS011;1815;50.950;6.920;2022-11-20T09:45:39;15.02;;;11.52;;
3601;SDS011;1815;50.950;6.920;2022-11-20T09:56:26;12.55;;;11.20;;
3601;SDS011;1815;50.950;6.920;2022-11-20T09:58:54;14.63;;;11.85;;
3601;SDS011;1815;50.950;6.920;2022-11-20T10:01:26;15.35;;;12.95;;
3601;SDS011;1815;50.950;6.920;2022-11-20T10:04:00;15.70;;;11.95;;
3601;SDS011;1815;50.950;6.920;2022-11-20T10:07:00;13.95;;;11.63;;
3601;SDS011;1815;50.950;6.920;2022-11-20T10:09:32;13.23;;;10.95;;
3601;SDS011;1815;50.950;6.920;2022-11-20T10:12:13;14.98;;;12.25;;
3601;SDS011;1815;50.950;6.920;2022-11-20T10:14:54;13.35;;;11.10;;
3601;SDS011;1815;50.950;6.920;2022-11-20T10:29:47;14.07;;;12.07;;
3601;SDS011;1815;50.950;6.920;2022-11-20T10:32:37;15.35;;;11.15;;
3601;SDS011;1815;50.950;6.920;2022-11-20T10:35:07;13.32;;;10.95;;
3601;SDS011;1815;50.950;6.920;2022-11-20T10:37:56;13.45;;;10.63;;
3601;SDS011;1815;50.950;6.920;2022-11-20T10:47:54;18.00;;;14.55;;
3601;SDS011;1815;50.950;6.920;2022-11-20T10:50:33;15.73;;;14.05;;
3601;SDS011;1815;50.950;6.920;2022-11-20T10:53:05;16.48;;;14.05;;
3601;SDS011;1815;50.950;6.920;2022-11-20T10:55:59;21.90;;;15.43;;
3601;SDS011;1815;50.950;6.920;2022-11-20T10:58:38;14.85;;;13.13;;
3601;SDS011;1815;50.950;6.920;2022-11-20T11:01:21;16.40;;;13.40;;
3601;SDS011;1815;50.950;6.920;2022-11-20T11:03:51;16.63;;;13.85;;
3601;SDS011;1815;50.950;6.920;2022-11-20T11:09:01;19.60;;;15.52;;
3601;SDS011;1815;50.950;6.920;2022-11-20T11:11:32;19.13;;;12.82;;
3601;SDS011;1815;50.950;6.920;2022-11-20T11:14:12;18.05;;;14.07;;
3601;SDS011;1815;50.950;6.920;2022-11-20T11:16:56;19.55;;;16.50;;
3601;SDS011;1815;50.950;6.920;2022-11-20T11:19:23;16.45;;;13.77;;
3601;SDS011;1815;50.950;6.920;2022-11-20T11:21:50;15.52;;;13.25;;
3601;SDS011;1815;50.950;6.920;2022-11-20T11:26:52;16.00;;;13.27;;
3601;SDS011;1815;50.950;6.920;2022-11-20T11:29:30;14.93;;;11.65;;
3601;SDS011;1815;50.950;6.920;2022-11-20T11:32:04;16.30;;;13.02;;
3601;SDS011;1815;50.950;6.920;2022-11-20T11:34:36;16.90;;;12.73;;
3601;SDS011;1815;50.950;6.920;2022-11-20T11:37:02;14.17;;;12.17;;
3601;SDS011;1815;50.950;6.920;2022-11-20T11:39:30;15.93;;;12.40;;
3601;SDS011;1815;50.950;6.920;2022-11-20T11:41:58;15.38;;;12.70;;
3601;SDS011;1815;50.950;6.920;2022-11-20T11:44:35;15.88;;;12.13;;
3601;SDS011;1815;50.950;6.920;2022-11-20T11:49:48;17.42;;;14.80;;
3601;SDS011;1815;50.950;6.920;2022-11-20T11:52:25;15.82;;;12.38;;
3601;SDS011;1815;50.950;6.920;2022-11-20T11:57:41;18.63;;;14.60;;
3601;SDS011;1815;50.950;6.920;2022-11-20T12:00:19;14.85;;;12.70;;
3601;SDS011;1815;50.950;6.920;2022-11-20T12:03:11;18.38;;;14.68;;
3601;SDS011;1815;50.950;6.920;2022-11-20T12:05:43;18.13;;;12.73;;
3601;SDS011;1815;50.950;6.920;2022-11-20T12:08:15;18.40;;;15.52;;
3601;SDS011;1815;50.950;6.920;2022-11-20T12:16:17;19.10;;;14.77;;
3601;SDS011;1815;50.950;6.920;2022-11-20T12:18:44;17.98;;;14.75;;
3601;SDS011;1815;50.950;6.920;2022-11-20T12:39:55;16.50;;;13.00;;
3601;SDS011;1815;50.950;6.920;2022-11-20T12:42:44;18.45;;;15.20;;
3601;SDS011;1815;50.950;6.920;2022-11-20T12:48:26;13.77;;;11.90;;
3601;SDS011;1815;50.950;6.920;2022-11-20T12:53:49;14.38;;;12.98;;
3601;SDS011;1815;50.950;6.920;2022-11-20T12:56:26;20.52;;;15.20;;
3601;SDS011;1815;50.950;6.920;2022-11-20T13:01:45;18.97;;;14.63;;
3601;SDS011;1815;50.950;6.920;2022-11-20T13:06:49;17.63;;;13.85;;
3601;SDS011;1815;50.950;6.920;2022-11-20T13:09:16;17.63;;;14.35;;
3601;SDS011;1815;50.950;6.920;2022-11-20T13:11:58;16.13;;;14.15;;
3601;SDS011;1815;50.950;6.920;2022-11-20T13:14:31;17.17;;;13.30;;
3601;SDS011;1815;50.950;6.920;2022-11-20T13:19:53;20.08;;;14.82;;
3601;SDS011;1815;50.950;6.920;2022-11-20T13:22:27;20.92;;;15.25;;
3601;SDS011;1815;50.950;6.920;2022-11-20T13:24:54;18.08;;;13.85;;
3601;SDS011;1815;50.950;6.920;2022-11-20T13:27:23;19.10;;;15.10;;
3601;SDS011;1815;50.950;6.920;2022-11-20T13:30:11;18.75;;;14.90;;
3601;SDS011;1815;50.950;6.920;2022-11-20T13:35:27;13.13;;;11.32;;
3601;SDS011;1815;50.950;6.920;2022-11-20T13:38:07;16.85;;;14.23;;
3601;SDS011;1815;50.950;6.920;2022-11-20T13:40:37;16.23;;;12.95;;
3601;SDS011;1815;50.950;6.920;2022-11-20T13:46:05;17.27;;;14.13;;
3601;SDS011;1815;50.950;6.920;2022-11-20T13:48:33;18.65;;;12.50;;
3601;SDS011;1815;50.950;6.920;2022-11-20T13:51:06;18.42;;;14.30;;
3601;SDS011;1815;50.950;6.920;2022-11-20T13:56:40;23.45;;;16.80;;
3601;SDS011;1815;50.950;6.920;2022-11-20T14:02:21;17.98;;;14.05;;
3601;SDS011;1815;50.950;6.920;2022-11-20T14:04:49;17.83;;;14.05;;
3601;SDS011;1815;50.950;6.920;2022-11-20T14:07:20;15.23;;;12.82;;
3601;SDS011;1815;50.950;6.920;2022-11-20T14:09:50;18.20;;;14.98;;
3601;SDS011;1815;50.950;6.920;2022-11-20T14:12:19;18.33;;;13.63;;
3601;SDS011;1815;50.950;6.920;2022-11-20T14:14:48;19.08;;;14.65;;
3601;SDS011;1815;50.950;6.920;2022-11-20T14:20:04;16.95;;;13.00;;
3601;SDS011;1815;50.950;6.920;2022-11-20T14:22:38;18.50;;;14.85;;
3601;SDS011;1815;50.950;6.920;2022-11-20T14:27:43;17.52;;;14.23;;
3601;SDS011;1815;50.950;6.920;2022-11-20T14:30:26;15.65;;;12.65;;
3601;SDS011;1815;50.950;6.920;2022-11-20T14:33:01;16.50;;;13.93;;
3601;SDS011;1815;50.950;6.920;2022-11-20T14:35:29;18.02;;;14.15;;
3601;SDS011;1815;50.950;6.920;2022-11-20T14:38:00;15.52;;;12.02;;
3601;SDS011;1815;50.950;6.920;2022-11-20T14:40:28;17.73;;;13.13;;
3601;SDS011;1815;50.950;6.920;2022-11-20T14:43:00;14.73;;;11.05;;
3601;SDS011;1815;50.950;6.920;2022-11-20T14:45:29;15.02;;;12.05;;
3601;SDS011;1815;50.950;6.920;2022-11-20T14:47:56;15.63;;;12.97;;
3601;SDS011;1815;50.950;6.920;2022-11-20T14:50:24;16.67;;;13.13;;
3601;SDS011;1815;50.950;6.920;2022-11-20T14:55:27;19.02;;;14.85;;
3601;SDS011;1815;50.950;6.920;2022-11-20T14:57:57;15.80;;;13.15;;
3601;SDS011;1815;50.950;6.920;2022-11-20T15:00:25;22.23;;;14.60;;
3601;SDS011;1815;50.950;6.920;2022-11-20T15:02:51;15.90;;;14.00;;
3601;SDS011;1815;50.950;6.920;2022-11-20T15:05:22;15.90;;;13.35;;
3601;SDS011;1815;50.950;6.920;2022-11-20T15:07:51;18.00;;;15.15;;
3601;SDS011;1815;50.950;6.920;2022-11-20T15:10:30;16.15;;;12.02;;
3601;SDS011;1815;50.950;6.920;2022-11-20T15:13:01;17.58;;;13.05;;
3601;SDS011;1815;50.950;6.920;2022-11-20T15:18:01;17.92;;;14.23;;
3601;SDS011;1815;50.950;6.920;2022-11-20T15:20:29;16.60;;;13.50;;
3601;SDS011;1815;50.950;6.920;2022-11-20T15:22:57;15.40;;;11.63;;
3601;SDS011;1815;50.950;6.920;2022-11-20T15:25:23;15.70;;;11.43;;
3601;SDS011;1815;50.950;6.920;2022-11-20T15:27:52;15.80;;;13.55;;
3601;SDS011;1815;50.950;6.920;2022-11-20T15:30:22;15.98;;;12.68;;
3601;SDS011;1815;50.950;6.920;2022-11-20T15:32:48;18.02;;;13.45;;
3601;SDS011;1815;50.950;6.920;2022-11-20T15:35:14;15.43;;;13.77;;
3601;SDS011;1815;50.950;6.920;2022-11-20T15:37:41;16.02;;;12.45;;
3601;SDS011;1815;50.950;6.920;2022-11-20T15:40:07;14.70;;;11.75;;
3601;SDS011;1815;50.950;6.920;2022-11-20T15:42:34;17.30;;;13.88;;
3601;SDS011;1815;50.950;6.920;2022-11-20T15:45:00;16.42;;;12.77;;
3601;SDS011;1815;50.950;6.920;2022-11-20T15:47:27;21.33;;;16.48;;
3601;SDS011;1815;50.950;6.920;2022-11-20T15:49:58;26.00;;;18.77;;
3601;SDS011;1815;50.950;6.920;2022-11-20T15:52:24;24.65;;;18.50;;
3601;SDS011;1815;50.950;6.920;2022-11-20T15:54:50;28.38;;;20.42;;
3601;SDS011;1815;50.950;6.920;2022-11-20T15:57:16;16.73;;;13.80;;
3601;SDS011;1815;50.950;6.920;2022-11-20T15:59:42;15.97;;;13.70;;
3601;SDS011;1815;50.950;6.920;2022-11-20T16:02:11;17.97;;;12.23;;
3601;SDS011;1815;50.950;6.920;2022-11-20T16:04:38;20.40;;;13.57;;
3601;SDS011;1815;50.950;6.920;2022-11-20T16:07:04;16.77;;;13.70;;
3601;SDS011;1815;50.950;6.920;2022-11-20T16:09:30;14.30;;;12.13;;
3601;SDS011;1815;50.950;6.920;2022-11-20T16:11:56;11.97;;;10.27;;
3601;SDS011;1815;50.950;6.920;2022-11-20T16:14:24;12.82;;;9.60;;
3601;SDS011;1815;50.950;6.920;2022-11-20T16:17:09;12.52;;;9.52;;
3601;SDS011;1815;50.950;6.920;2022-11-20T16:19:35;13.70;;;10.17;;
3601;SDS011;1815;50.950;6.920;2022-11-20T16:22:01;13.57;;;9.80;;
3601;SDS011;1815;50.950;6.920;2022-11-20T16:24:27;13.37;;;9.17;;
3601;SDS011;1815;50.950;6.920;2022-11-20T16:26:53;10.27;;;7.10;;
3601;SDS011;1815;50.950;6.920;2022-11-20T16:29:20;15.05;;;10.05;;
3601;SDS011;1815;50.950;6.920;2022-11-20T16:31:45;11.57;;;9.27;;
3601;SDS011;1815;50.950;6.920;2022-11-20T16:34:11;9.90;;;8.13;;
3601;SDS011;1815;50.950;6.920;2022-11-20T16:36:40;9.80;;;7.20;;
3601;SDS011;1815;50.950;6.920;2022-11-20T16:39:07;11.30;;;7.25;;
3601;SDS011;1815;50.950;6.920;2022-11-20T16:41:33;10.03;;;7.70;;
3601;SDS011;1815;50.950;6.920;2022-11-20T16:44:00;9.85;;;7.78;;
3601;SDS011;1815;50.950;6.920;2022-11-20T16:46:31;10.55;;;7.40;;